Time;durP1;ratioP1;P1;durP2;ratioP2;P2;SDS_P1;SDS_P2;PMS_P1;PMS_P2;Temp;Humidity;BMP_temperature;BMP_pressure;BME280_temperature;BME280_humidity;BME280_pressure;Samples;Min_cycle;Max_cycle;Signal;HPM_P1;HPM_P2
2023/07/01 00:00:12;;;;;;;3.95;2.65;;;18.60;65.30;;;;;;6060153;23;20058;-77
2023/07/01 00:02:37;;;;;;;2.95;2.42;;;18.60;65.40;;;;;;6060693;23;20353;-77
2023/07/01 00:05:04;;;;;;;6.47;2.40;;;18.70;65.60;;;;;;6084232;23;20018;-77
2023/07/01 00:07:29;;;;;;;5.65;1.90;;;18.60;64.50;;;;;;6036950;23;20011;-77
2023/07/01 00:09:55;;;;;;;6.43;2.53;;;18.80;64.90;;;;;;6036197;23;20013;-78
2023/07/01 00:12:21;;;;;;;6.25;1.95;;;18.70;65.10;;;;;;6060253;23;20021;-76
2023/07/01 00:14:46;;;;;;;4.28;2.00;;;18.60;65.20;;;;;;6086682;23;20455;-77
2023/07/01 00:17:12;;;;;;;3.95;2.03;;;18.60;64.90;;;;;;6060391;23;20381;-78
2023/07/01 00:19:38;;;;;;;4.20;2.33;;;18.70;64.70;;;;;;6084593;23;20014;-77
2023/07/01 00:22:06;;;;;;;3.67;2.08;;;18.70;65.00;;;;;;6048611;23;20025;-77
2023/07/01 00:24:31;;;;;;;5.40;2.30;;;18.60;65.20;;;;;;6060643;23;20472;-77
2023/07/01 00:26:57;;;;;;;2.95;2.10;;;18.70;65.50;;;;;;6060057;23;20010;-77
2023/07/01 00:29:23;;;;;;;3.35;1.95;;;18.80;65.20;;;;;;6060305;23;20456;-77
2023/07/01 00:31:48;;;;;;;4.13;2.08;;;18.70;65.00;;;;;;6059920;23;20018;-77
2023/07/01 00:34:14;;;;;;;2.97;2.03;;;18.60;64.90;;;;;;6061062;23;20027;-78
2023/07/01 00:36:39;;;;;;;3.88;2.22;;;18.70;64.80;;;;;;6059505;23;20352;-77
2023/07/01 00:39:05;;;;;;;5.55;2.50;;;18.60;65.40;;;;;;6059673;23;20014;-77
2023/07/01 00:41:30;;;;;;;4.90;2.45;;;18.60;65.90;;;;;;6083744;23;20094;-77
2023/07/01 00:43:56;;;;;;;4.78;2.30;;;18.60;65.10;;;;;;6060296;23;20006;-76
2023/07/01 00:46:22;;;;;;;3.47;2.10;;;18.50;66.30;;;;;;6036020;23;20018;-76
2023/07/01 00:48:47;;;;;;;3.47;2.30;;;18.50;65.70;;;;;;6060571;23;20061;-76
2023/07/01 00:51:13;;;;;;;5.38;2.80;;;18.50;65.80;;;;;;6089713;23;20436;-77
2023/07/01 00:53:39;;;;;;;4.75;2.53;;;18.50;66.40;;;;;;6064440;23;20101;-78
2023/07/01 00:56:06;;;;;;;5.65;1.73;;;18.50;66.70;;;;;;6064338;23;20620;-78
2023/07/01 00:58:32;;;;;;;5.00;2.50;;;18.50;65.40;;;;;;6038163;23;20167;-78
2023/07/01 01:00:58;;;;;;;3.00;2.33;;;18.70;64.70;;;;;;6064488;23;20440;-77
2023/07/01 01:03:43;;;;;;;5.55;2.72;;;18.50;65.40;;;;;;6064600;23;20461;-77
2023/07/01 01:06:17;;;;;;;4.22;2.00;;;18.60;65.20;;;;;;6065219;23;20014;-77
2023/07/01 01:09:30;;;;;;;4.60;1.80;;;18.60;65.00;;;;;;6065985;23;20010;-76
2023/07/01 01:11:55;;;;;;;3.65;2.10;;;18.80;65.30;;;;;;6012646;23;20459;-77
2023/07/01 01:14:21;;;;;;;4.60;2.20;;;18.70;65.10;;;;;;6064474;23;20022;-77
2023/07/01 01:16:46;;;;;;;3.60;2.58;;;18.70;65.00;;;;;;6063168;23;20049;-77
2023/07/01 01:19:38;;;;;;;6.65;2.40;;;18.60;67.50;;;;;;6088608;23;20037;-77
2023/07/01 01:22:16;;;;;;;3.55;1.90;;;18.60;66.60;;;;;;6071606;23;20024;-77
2023/07/01 01:24:43;;;;;;;7.05;2.67;;;18.60;66.20;;;;;;6066732;23;20069;-77
2023/07/01 01:27:11;;;;;;;4.60;2.00;;;18.70;65.60;;;;;;6064074;23;20026;-77
2023/07/01 01:29:36;;;;;;;2.30;1.98;;;18.80;65.20;;;;;;6041960;23;20014;-77
2023/07/01 01:32:02;;;;;;;3.42;1.75;;;18.90;65.50;;;;;;6115362;23;20074;-76
2023/07/01 01:34:28;;;;;;;5.93;2.10;;;18.80;66.40;;;;;;6063920;23;20089;-77
2023/07/01 01:36:54;;;;;;;4.45;1.90;;;18.70;66.70;;;;;;6064023;23;20367;-77
2023/07/01 01:39:27;;;;;;;4.10;2.03;;;18.70;66.40;;;;;;6038560;23;20435;-77
2023/07/01 01:41:59;;;;;;;4.55;1.75;;;18.70;66.50;;;;;;6083190;23;20475;-77
2023/07/01 01:44:30;;;;;;;3.80;1.90;;;18.80;66.40;;;;;;6061505;23;20010;-77
2023/07/01 01:46:56;;;;;;;6.22;2.30;;;18.80;66.20;;;;;;6062238;23;20037;-77
2023/07/01 01:49:21;;;;;;;2.95;1.95;;;18.80;66.50;;;;;;6054780;23;20029;-77
2023/07/01 01:51:47;;;;;;;3.25;2.13;;;18.80;66.60;;;;;;6057370;23;20017;-77
2023/07/01 01:54:12;;;;;;;4.05;2.17;;;18.80;66.40;;;;;;6058645;23;20413;-76
2023/07/01 01:56:38;;;;;;;5.28;2.20;;;18.90;67.00;;;;;;6054951;23;20020;-76
2023/07/01 01:59:03;;;;;;;2.85;1.95;;;18.80;66.80;;;;;;6058873;23;20029;-77
2023/07/01 02:01:29;;;;;;;3.20;2.33;;;18.80;66.90;;;;;;6058162;23;20018;-76
2023/07/01 02:03:55;;;;;;;3.65;2.33;;;18.80;66.80;;;;;;6055194;23;20436;-76
2023/07/01 02:06:20;;;;;;;5.13;2.25;;;18.80;67.40;;;;;;6082911;23;20042;-77
2023/07/01 02:08:46;;;;;;;3.38;1.90;;;18.80;67.30;;;;;;6060209;23;20010;-77
2023/07/01 02:11:12;;;;;;;4.72;1.85;;;18.80;67.40;;;;;;6085745;23;20041;-77
2023/07/01 02:13:37;;;;;;;3.53;2.28;;;18.80;67.50;;;;;;6053964;23;20455;-77
2023/07/01 02:16:03;;;;;;;1.77;1.55;;;18.80;67.40;;;;;;6059256;23;20022;-77
2023/07/01 02:18:28;;;;;;;4.18;2.05;;;18.70;67.50;;;;;;6084416;23;20021;-77
2023/07/01 02:20:54;;;;;;;2.33;1.92;;;18.80;67.60;;;;;;6057611;23;20395;-77
2023/07/01 02:23:19;;;;;;;3.28;2.10;;;18.80;67.30;;;;;;6061770;23;20045;-77
2023/07/01 02:25:45;;;;;;;2.80;1.65;;;18.80;67.50;;;;;;6084196;23;20313;-77
2023/07/01 02:28:11;;;;;;;2.83;2.15;;;18.70;67.20;;;;;;6055708;23;20021;-77
2023/07/01 02:30:36;;;;;;;4.85;2.05;;;18.90;67.40;;;;;;6082715;23;20068;-77
2023/07/01 02:33:02;;;;;;;3.60;2.45;;;18.70;67.40;;;;;;6058440;23;20068;-77
2023/07/01 02:35:29;;;;;;;2.03;1.88;;;18.70;67.50;;;;;;6083427;23;20088;-76
2023/07/01 02:37:54;;;;;;;3.75;2.17;;;18.80;67.40;;;;;;6077245;23;20464;-77
2023/07/01 02:40:20;;;;;;;2.55;2.00;;;18.80;67.30;;;;;;6081902;23;20423;-77
2023/07/01 02:42:45;;;;;;;2.75;2.00;;;18.80;67.40;;;;;;6059851;23;20016;-77
2023/07/01 02:45:11;;;;;;;3.55;2.08;;;18.80;67.00;;;;;;6053148;23;20030;-77
2023/07/01 02:47:36;;;;;;;4.60;2.00;;;18.80;67.20;;;;;;6058455;23;20030;-77
2023/07/01 02:50:04;;;;;;;3.97;2.35;;;18.70;67.20;;;;;;6059783;23;20321;-77
2023/07/01 02:52:29;;;;;;;3.80;1.85;;;18.80;67.20;;;;;;6076626;23;20326;-77
2023/07/01 02:54:55;;;;;;;5.53;1.90;;;18.80;67.10;;;;;;6082466;23;20006;-77
2023/07/01 02:57:21;;;;;;;2.53;1.52;;;18.90;67.30;;;;;;6057551;23;20553;-77
2023/07/01 02:59:48;;;;;;;6.53;2.25;;;18.80;67.10;;;;;;6052811;23;20448;-77
2023/07/01 03:02:14;;;;;;;3.63;2.05;;;18.80;67.10;;;;;;6107132;23;20025;-77
2023/07/01 03:04:40;;;;;;;5.57;2.08;;;18.80;67.60;;;;;;6081469;23;20024;-76
2023/07/01 03:07:05;;;;;;;3.25;2.03;;;18.70;67.70;;;;;;6077287;23;20029;-76
2023/07/01 03:09:31;;;;;;;3.20;2.00;;;18.70;69.00;;;;;;6083025;23;20016;-76
2023/07/01 03:11:56;;;;;;;4.63;2.38;;;18.50;68.60;;;;;;6057185;23;20010;-76
2023/07/01 03:14:22;;;;;;;6.45;2.13;;;18.60;68.60;;;;;;6109164;23;20606;-77
2023/07/01 03:16:49;;;;;;;3.95;2.20;;;18.60;68.50;;;;;;6053699;23;20018;-76
2023/07/01 03:19:15;;;;;;;3.38;2.10;;;18.60;68.10;;;;;;6081453;23;20010;-77
2023/07/01 03:21:40;;;;;;;3.40;2.45;;;18.60;68.20;;;;;;6058358;23;20017;-76
2023/07/01 03:24:06;;;;;;;4.78;2.05;;;18.60;68.30;;;;;;6053800;23;20014;-76
2023/07/01 03:26:32;;;;;;;6.80;3.17;;;18.60;68.10;;;;;;6081086;23;20010;-76
2023/07/01 03:28:57;;;;;;;4.45;2.42;;;18.50;68.50;;;;;;6082162;23;20014;-76
2023/07/01 03:31:23;;;;;;;3.13;2.13;;;18.60;68.40;;;;;;6054785;23;20030;-77
2023/07/01 03:33:48;;;;;;;4.20;1.90;;;18.50;68.40;;;;;;6080913;23;20018;-77
2023/07/01 03:36:14;;;;;;;2.80;1.90;;;18.60;68.30;;;;;;6057750;23;20030;-76
2023/07/01 03:38:40;;;;;;;2.58;2.05;;;18.60;68.70;;;;;;6053391;23;20088;-77
2023/07/01 03:41:09;;;;;;;3.00;1.88;;;18.50;68.50;;;;;;6058717;23;20352;-77
2023/07/01 03:43:34;;;;;;;3.88;2.17;;;18.50;68.70;;;;;;6065536;23;20018;-77
2023/07/01 03:46:00;;;;;;;3.70;2.30;;;18.50;68.40;;;;;;6048258;23;20010;-77
2023/07/01 03:48:26;;;;;;;3.58;2.03;;;18.50;68.60;;;;;;6006620;23;20013;-76
2023/07/01 03:50:51;;;;;;;3.47;2.25;;;18.50;68.50;;;;;;6059203;23;20006;-76
2023/07/01 03:53:17;;;;;;;3.95;1.60;;;18.50;69.00;;;;;;6048286;23;20592;-77
2023/07/01 03:55:43;;;;;;;4.50;2.15;;;18.60;68.80;;;;;;6076466;23;20007;-76
2023/07/01 03:58:08;;;;;;;1.92;1.15;;;18.60;68.70;;;;;;6050913;23;20061;-77
2023/07/01 04:00:34;;;;;;;4.57;2.50;;;18.50;69.10;;;;;;6029579;23;20093;-77
2023/07/01 04:03:05;;;;;;;4.07;2.30;;;18.50;69.00;;;;;;6073062;23;20015;-77
2023/07/01 04:05:31;;;;;;;4.07;1.90;;;18.60;68.80;;;;;;6075063;23;20445;-76
2023/07/01 04:07:56;;;;;;;2.58;2.20;;;18.60;68.70;;;;;;6052936;23;20371;-76
2023/07/01 04:10:22;;;;;;;2.92;1.88;;;18.60;68.80;;;;;;6061701;23;20013;-77
2023/07/01 04:12:47;;;;;;;4.30;1.83;;;18.60;69.00;;;;;;6051632;23;20014;-76
2023/07/01 04:15:13;;;;;;;5.53;2.15;;;18.60;69.20;;;;;;6059881;23;20034;-76
2023/07/01 04:17:44;;;;;;;6.25;2.40;;;18.60;69.20;;;;;;6071141;23;20027;-76
2023/07/01 04:20:10;;;;;;;5.10;2.35;;;18.60;69.30;;;;;;6052484;23;20555;-76
2023/07/01 04:22:36;;;;;;;2.05;1.77;;;18.60;69.40;;;;;;6053778;23;20384;-76
2023/07/01 04:25:02;;;;;;;2.83;1.70;;;18.60;69.50;;;;;;6047925;23;20020;-76
2023/07/01 04:27:28;;;;;;;6.50;2.28;;;18.60;69.60;;;;;;6052544;23;20093;-77
2023/07/01 04:29:53;;;;;;;4.00;1.77;;;18.60;69.20;;;;;;6052862;23;20089;-77
2023/07/01 04:32:19;;;;;;;3.53;1.88;;;18.60;69.30;;;;;;6071498;23;20405;-76
2023/07/01 04:34:44;;;;;;;2.40;1.90;;;18.60;69.40;;;;;;6052358;23;20528;-77
2023/07/01 04:37:10;;;;;;;3.13;1.83;;;18.60;69.40;;;;;;6076153;23;20089;-76
2023/07/01 04:39:35;;;;;;;3.05;2.10;;;18.70;69.50;;;;;;6046794;23;20018;-76
2023/07/01 04:42:02;;;;;;;4.38;2.20;;;18.80;69.70;;;;;;6053732;23;20029;-76
2023/07/01 04:44:28;;;;;;;6.93;2.28;;;18.70;69.50;;;;;;6028710;23;20019;-76
2023/07/01 04:46:53;;;;;;;6.30;2.05;;;18.70;69.20;;;;;;6071526;23;20006;-77
2023/07/01 04:49:19;;;;;;;3.30;2.10;;;18.70;69.30;;;;;;6081018;23;20006;-76
2023/07/01 04:51:44;;;;;;;3.22;2.10;;;18.70;69.50;;;;;;6080027;23;20014;-76
2023/07/01 04:54:10;;;;;;;4.18;2.13;;;18.70;69.20;;;;;;6054186;23;20010;-77
2023/07/01 04:56:36;;;;;;;3.45;2.25;;;18.70;69.00;;;;;;6081368;23;20019;-78
2023/07/01 04:59:01;;;;;;;2.42;1.10;;;18.80;69.10;;;;;;6079549;23;20017;-78
2023/07/01 05:01:27;;;;;;;4.40;2.08;;;18.80;69.10;;;;;;6057664;23;20064;-77
2023/07/01 05:03:53;;;;;;;4.32;2.10;;;18.80;69.00;;;;;;6053409;23;20013;-77
2023/07/01 05:06:18;;;;;;;2.80;1.80;;;18.80;68.90;;;;;;6080004;23;20014;-78
2023/07/01 05:08:44;;;;;;;4.72;1.85;;;18.90;68.70;;;;;;6057233;23;20284;-78
2023/07/01 05:11:10;;;;;;;2.47;2.10;;;18.90;68.80;;;;;;6075983;23;20017;-77
2023/07/01 05:13:35;;;;;;;3.00;1.70;;;19.00;68.50;;;;;;6056102;23;20472;-77
2023/07/01 05:16:01;;;;;;;4.28;2.15;;;19.10;68.60;;;;;;6057080;23;20018;-77
2023/07/01 05:18:27;;;;;;;5.20;2.10;;;18.90;68.10;;;;;;6052671;23;20025;-76
2023/07/01 05:20:52;;;;;;;3.33;1.80;;;19.00;68.70;;;;;;6081320;23;20089;-76
2023/07/01 05:23:18;;;;;;;3.35;1.83;;;19.10;68.40;;;;;;6056233;23;20021;-77
2023/07/01 05:25:43;;;;;;;4.95;2.15;;;19.20;68.40;;;;;;6051580;23;20312;-76
2023/07/01 05:28:09;;;;;;;4.43;2.38;;;19.10;68.00;;;;;;6081900;23;20241;-76
2023/07/01 05:30:34;;;;;;;3.88;2.03;;;19.20;68.10;;;;;;6080505;23;20079;-78
2023/07/01 05:33:00;;;;;;;5.57;2.10;;;19.30;68.00;;;;;;6057483;23;20037;-76
2023/07/01 05:35:25;;;;;;;8.30;1.75;;;19.30;67.90;;;;;;6053211;23;20014;-76
2023/07/01 05:37:52;;;;;;;2.95;1.60;;;19.30;67.70;;;;;;6056793;23;20018;-77
2023/07/01 05:40:17;;;;;;;3.92;1.92;;;19.40;67.70;;;;;;6033290;23;20018;-76
2023/07/01 05:42:45;;;;;;;6.50;3.28;;;19.40;67.70;;;;;;6103896;23;20387;-76
2023/07/01 05:45:11;;;;;;;5.20;1.98;;;19.50;67.60;;;;;;6107345;23;20475;-75
2023/07/01 05:47:36;;;;;;;4.53;1.85;;;19.40;67.50;;;;;;6058062;23;20010;-76
2023/07/01 05:50:02;;;;;;;6.80;1.77;;;19.50;67.60;;;;;;6102418;23;20448;-75
2023/07/01 05:52:28;;;;;;;3.53;1.75;;;19.50;67.50;;;;;;6081714;23;20021;-77
2023/07/01 05:54:53;;;;;;;3.30;2.22;;;19.70;67.40;;;;;;6059676;23;20489;-77
2023/07/01 05:57:19;;;;;;;4.00;1.95;;;19.70;67.20;;;;;;6074025;23;20491;-77
2023/07/01 05:59:44;;;;;;;4.60;2.20;;;19.80;67.30;;;;;;6083149;23;20528;-77
2023/07/01 06:02:10;;;;;;;2.65;2.00;;;19.70;67.50;;;;;;6057547;23;20021;-77
2023/07/01 06:04:35;;;;;;;3.00;2.00;;;19.80;67.40;;;;;;6078946;23;20072;-78
2023/07/01 06:07:01;;;;;;;3.03;2.17;;;19.80;67.10;;;;;;6084137;23;20116;-77
2023/07/01 06:09:26;;;;;;;2.17;1.23;;;19.90;67.60;;;;;;6109055;23;20752;-77
2023/07/01 06:11:55;;;;;;;3.05;1.83;;;19.80;67.60;;;;;;6060391;23;20010;-77
2023/07/01 06:14:20;;;;;;;4.45;1.45;;;19.70;68.90;;;;;;6055675;23;20030;-77
2023/07/01 06:16:46;;;;;;;4.88;1.70;;;19.90;68.80;;;;;;6058127;23;20017;-77
2023/07/01 06:19:11;;;;;;;4.47;2.10;;;19.90;68.10;;;;;;6060245;23;20100;-77
2023/07/01 06:21:37;;;;;;;7.00;2.22;;;19.80;68.70;;;;;;6054961;23;20016;-78
2023/07/01 06:24:03;;;;;;;2.67;1.58;;;19.80;68.50;;;;;;6074491;23;20006;-77
2023/07/01 06:26:28;;;;;;;3.88;1.88;;;19.90;68.90;;;;;;6058142;23;20361;-78
2023/07/01 06:28:54;;;;;;;3.25;1.83;;;19.80;69.70;;;;;;6054334;23;20022;-78
2023/07/01 06:31:19;;;;;;;3.22;1.90;;;19.50;71.80;;;;;;6083057;23;20010;-78
2023/07/01 06:33:45;;;;;;;3.20;1.52;;;19.60;71.40;;;;;;6058504;23;20010;-78
2023/07/01 06:36:12;;;;;;;1.95;1.38;;;19.50;72.80;;;;;;6057807;23;20373;-78
2023/07/01 06:38:38;;;;;;;3.65;1.58;;;19.40;72.90;;;;;;6072143;23;20022;-78
2023/07/01 06:41:04;;;;;;;7.22;1.80;;;19.30;73.00;;;;;;6078567;23;20017;-78
2023/07/01 06:43:29;;;;;;;6.13;1.85;;;19.30;73.00;;;;;;6054849;23;20014;-78
2023/07/01 06:45:55;;;;;;;2.67;1.83;;;19.30;73.00;;;;;;6071740;23;20022;-78
2023/07/01 06:48:20;;;;;;;4.35;2.13;;;19.20;73.50;;;;;;6079157;23;20018;-78
2023/07/01 06:50:46;;;;;;;9.18;2.63;;;19.10;73.40;;;;;;6080062;23;20025;-78
2023/07/01 06:53:11;;;;;;;3.17;2.65;;;19.30;74.20;;;;;;6051486;23;20010;-78
2023/07/01 06:55:37;;;;;;;2.60;2.10;;;19.10;75.30;;;;;;6076524;23;20038;-77
2023/07/01 06:58:02;;;;;;;11.10;2.88;;;19.10;75.70;;;;;;6053127;23;20007;-77
2023/07/01 07:00:29;;;;;;;10.05;2.88;;;19.00;77.60;;;;;;6074147;23;20041;-78
2023/07/01 07:02:54;;;;;;;3.63;1.92;;;18.90;78.70;;;;;;6054445;23;20011;-78
2023/07/01 07:05:20;;;;;;;8.30;1.67;;;18.80;78.80;;;;;;6053405;23;20014;-78
2023/07/01 07:07:46;;;;;;;3.58;2.10;;;18.70;79.10;;;;;;6053137;23;20345;-78
2023/07/01 07:10:11;;;;;;;5.45;2.00;;;18.70;80.70;;;;;;6051066;23;20427;-78
2023/07/01 07:12:37;;;;;;;6.45;1.83;;;18.60;80.90;;;;;;6077939;23;20013;-78
2023/07/01 07:15:03;;;;;;;4.78;1.83;;;18.60;81.90;;;;;;6078188;23;20010;-78
2023/07/01 07:17:28;;;;;;;7.30;2.70;;;18.50;83.20;;;;;;6047917;23;20050;-78
2023/07/01 07:19:54;;;;;;;6.93;2.40;;;18.50;83.40;;;;;;6054507;23;20237;-79
2023/07/01 07:22:20;;;;;;;4.25;2.13;;;18.60;83.70;;;;;;6030780;23;20014;-77
2023/07/01 07:24:45;;;;;;;5.80;3.00;;;18.50;84.60;;;;;;6049895;23;20010;-78
2023/07/01 07:27:11;;;;;;;4.95;2.33;;;18.60;85.20;;;;;;6055353;23;20531;-77
2023/07/01 07:29:37;;;;;;;2.22;1.13;;;18.70;85.40;;;;;;6054055;23;20730;-77
2023/07/01 07:32:03;;;;;;;4.70;1.67;;;18.60;86.40;;;;;;6055220;23;20377;-78
2023/07/01 07:34:28;;;;;;;5.75;2.40;;;18.60;87.90;;;;;;6049043;23;20018;-77
2023/07/01 07:36:54;;;;;;;7.85;2.00;;;18.60;87.90;;;;;;6076294;23;20141;-77
2023/07/01 07:39:19;;;;;;;3.08;1.83;;;18.80;88.10;;;;;;6079155;23;20430;-79
2023/07/01 07:41:45;;;;;;;3.30;1.98;;;18.60;89.70;;;;;;6048958;23;20019;-77
2023/07/01 07:44:11;;;;;;;1.02;0.95;;;18.80;89.60;;;;;;6051862;23;20069;-77
2023/07/01 07:46:38;;;;;;;3.63;2.20;;;18.70;90.40;;;;;;6076923;23;20575;-76
2023/07/01 07:49:04;;;;;;;2.45;1.10;;;18.80;90.40;;;;;;6045476;23;20010;-77
2023/07/01 07:51:29;;;;;;;3.58;1.75;;;18.70;90.70;;;;;;6053219;23;20373;-79
2023/07/01 07:53:55;;;;;;;5.60;2.25;;;18.90;90.80;;;;;;6028163;23;20014;-76
2023/07/01 07:56:20;;;;;;;3.42;1.92;;;19.00;90.90;;;;;;6071813;23;20460;-77
2023/07/01 07:58:46;;;;;;;3.90;1.70;;;19.00;90.40;;;;;;6078807;23;20085;-78
2023/07/01 08:01:12;;;;;;;4.55;2.15;;;19.20;90.80;;;;;;6075096;23;20014;-79
2023/07/01 08:03:38;;;;;;;2.40;1.10;;;19.20;90.80;;;;;;6077030;23;20010;-78
2023/07/01 08:06:04;;;;;;;6.32;1.98;;;19.20;90.70;;;;;;6056990;23;20011;-78
2023/07/01 08:08:29;;;;;;;2.95;2.00;;;19.20;90.80;;;;;;6058535;23;20034;-78
2023/07/01 08:10:55;;;;;;;5.45;1.85;;;19.30;90.90;;;;;;6077394;23;20010;-78
2023/07/01 08:13:21;;;;;;;2.17;1.92;;;19.50;90.50;;;;;;6046947;23;20105;-79
2023/07/01 08:15:47;;;;;;;4.28;1.95;;;19.60;90.80;;;;;;6052552;23;20006;-79
2023/07/01 08:18:12;;;;;;;3.58;1.98;;;19.70;90.40;;;;;;6053551;23;20373;-78
2023/07/01 08:20:38;;;;;;;2.95;1.73;;;19.70;90.30;;;;;;6047752;23;20030;-78
2023/07/01 08:23:04;;;;;;;2.42;1.20;;;19.60;90.60;;;;;;6052943;23;20010;-78
2023/07/01 08:25:30;;;;;;;3.78;2.00;;;19.60;90.70;;;;;;6053947;23;20118;-79
2023/07/01 08:27:55;;;;;;;6.18;2.15;;;19.80;90.60;;;;;;6024666;23;20014;-78
2023/07/01 08:30:22;;;;;;;3.28;2.05;;;19.80;91.10;;;;;;6078285;23;20014;-79
2023/07/01 08:32:48;;;;;;;5.60;1.83;;;20.00;90.30;;;;;;6075672;23;20030;-78
2023/07/01 08:35:13;;;;;;;1.80;1.48;;;20.10;90.30;;;;;;6025987;23;20459;-79
2023/07/01 08:37:39;;;;;;;3.75;1.85;;;20.00;90.90;;;;;;6062363;23;20085;-78
2023/07/01 08:40:07;;;;;;;2.35;1.67;;;20.00;91.10;;;;;;6028592;23;20014;-78
2023/07/01 08:42:37;;;;;;;2.95;2.15;;;19.90;91.50;;;;;;6048021;23;20018;-78
2023/07/01 08:45:03;;;;;;;6.07;1.55;;;20.20;91.50;;;;;;6055087;23;20018;-79
2023/07/01 08:47:29;;;;;;;2.25;1.38;;;20.30;91.20;;;;;;6052747;23;20019;-78
2023/07/01 08:49:55;;;;;;;4.70;2.05;;;20.20;91.10;;;;;;6031707;23;20539;-78
2023/07/01 08:52:21;;;;;;;3.72;1.85;;;20.70;91.30;;;;;;6029968;23;20010;-78
2023/07/01 08:54:47;;;;;;;4.30;1.95;;;20.40;91.30;;;;;;6016545;23;20415;-78
2023/07/01 08:57:13;;;;;;;4.22;1.85;;;20.50;91.80;;;;;;6071504;23;20014;-79
2023/07/01 08:59:41;;;;;;;5.65;1.67;;;20.70;91.20;;;;;;6077756;23;20022;-78
2023/07/01 09:02:10;;;;;;;3.10;2.25;;;20.80;91.00;;;;;;6076764;23;20010;-79
2023/07/01 09:04:37;;;;;;;2.47;1.70;;;20.50;92.30;;;;;;6049019;23;20067;-78
2023/07/01 09:07:03;;;;;;;3.08;2.10;;;20.80;91.30;;;;;;6029133;23;20010;-78
2023/07/01 09:09:29;;;;;;;3.05;2.38;;;20.70;91.80;;;;;;6076238;23;20017;-79
2023/07/01 09:11:55;;;;;;;3.95;2.25;;;20.90;92.70;;;;;;6050337;23;20337;-78
2023/07/01 09:14:20;;;;;;;6.13;2.25;;;20.80;92.60;;;;;;6078171;23;20445;-78
2023/07/01 09:16:46;;;;;;;6.03;2.08;;;20.80;93.00;;;;;;6060831;23;20422;-78
2023/07/01 09:19:16;;;;;;;2.72;1.80;;;20.70;93.20;;;;;;6032964;23;20396;-78
2023/07/01 09:21:42;;;;;;;2.30;1.77;;;21.00;93.10;;;;;;6035899;23;20022;-79
2023/07/01 09:24:10;;;;;;;1.30;1.17;;;20.90;93.70;;;;;;6027842;23;20089;-79
2023/07/01 09:26:35;;;;;;;3.88;1.80;;;20.80;94.30;;;;;;6030278;23;20512;-78
2023/07/01 09:29:11;;;;;;;2.45;1.58;;;20.60;95.50;;;;;;6025566;23;20010;-78
2023/07/01 09:31:49;;;;;;;8.13;2.42;;;20.50;96.20;;;;;;6052360;23;20025;-78
2023/07/01 09:34:16;;;;;;;2.42;1.60;;;20.80;96.30;;;;;;6025285;23;20419;-78
2023/07/01 09:36:42;;;;;;;2.75;1.55;;;20.60;96.40;;;;;;6028353;23;20042;-78
2023/07/01 09:39:08;;;;;;;3.25;2.38;;;21.00;96.30;;;;;;6029840;23;20014;-78
2023/07/01 09:41:34;;;;;;;3.53;2.05;;;20.90;97.30;;;;;;6024424;23;20025;-78
2023/07/01 09:43:59;;;;;;;2.20;2.00;;;21.10;97.10;;;;;;6052840;23;20077;-78
2023/07/01 09:46:43;;;;;;;3.13;2.15;;;20.90;97.90;;;;;;6053128;23;20014;-78
2023/07/01 09:49:08;;;;;;;3.03;2.30;;;20.70;97.80;;;;;;6054177;23;20010;-78
2023/07/01 09:51:45;;;;;;;3.00;1.80;;;20.50;98.50;;;;;;6058338;23;20018;-78
2023/07/01 09:54:26;;;;;;;2.38;1.95;;;20.30;99.30;;;;;;6048701;23;20015;-78
2023/07/01 09:56:56;;;;;;;2.97;1.83;;;20.30;99.10;;;;;;6057973;23;20033;-78
2023/07/01 09:59:24;;;;;;;1.60;1.40;;;20.30;99.30;;;;;;6029349;23;20022;-78
2023/07/01 10:01:55;;;;;;;2.42;1.92;;;20.20;99.90;;;;;;6057340;23;20017;-78
2023/07/01 10:04:25;;;;;;;1.90;1.70;;;20.10;99.90;;;;;;6058756;23;20022;-78
2023/07/01 10:06:51;;;;;;;2.47;2.05;;;20.00;99.90;;;;;;6029768;23;20018;-78
2023/07/01 10:09:16;;;;;;;2.55;2.05;;;20.00;99.90;;;;;;6056507;23;20270;-78
2023/07/01 10:11:42;;;;;;;3.85;1.70;;;19.90;99.90;;;;;;6057731;23;20014;-78
2023/07/01 10:14:07;;;;;;;2.10;1.52;;;19.90;99.90;;;;;;6052834;23;20026;-78
2023/07/01 10:16:33;;;;;;;1.83;1.45;;;19.70;99.90;;;;;;6080458;23;20014;-78
2023/07/01 10:19:00;;;;;;;1.50;0.98;;;19.70;99.90;;;;;;6056835;23;20029;-78
2023/07/01 10:21:26;;;;;;;1.58;1.35;;;19.60;99.90;;;;;;6053074;23;20032;-78
2023/07/01 10:23:52;;;;;;;1.60;1.30;;;19.70;99.90;;;;;;6058477;23;20052;-78
2023/07/01 10:26:42;;;;;;;1.75;1.23;;;19.80;99.90;;;;;;6056616;23;20088;-77
2023/07/01 10:29:30;;;;;;;3.05;1.83;;;19.80;99.90;;;;;;6083579;23;20002;-78
2023/07/01 10:32:11;;;;;;;1.65;1.48;;;19.80;99.90;;;;;;6104365;23;20010;-78
2023/07/01 10:35:06;;;;;;;1.45;1.27;;;19.80;99.90;;;;;;6108177;23;20017;-78
2023/07/01 10:37:32;;;;;;;2.88;1.42;;;19.70;99.90;;;;;;6058976;23;20014;-78
2023/07/01 10:39:59;;;;;;;3.72;1.60;;;19.70;99.90;;;;;;6034520;23;20025;-78
2023/07/01 10:42:31;;;;;;;3.10;1.10;;;20.00;99.90;;;;;;6054316;23;20499;-78
2023/07/01 10:45:12;;;;;;;1.17;1.02;;;20.00;99.90;;;;;;6059507;23;20085;-78
2023/07/01 10:47:42;;;;;;;1.60;1.40;;;20.00;99.90;;;;;;6105885;23;20065;-78
2023/07/01 10:50:09;;;;;;;2.55;1.13;;;19.90;99.90;;;;;;6058534;23;20096;-78
2023/07/01 10:52:56;;;;;;;1.77;1.42;;;20.00;99.90;;;;;;6035605;23;20068;-78
2023/07/01 10:55:46;;;;;;;0.82;0.82;;;20.00;99.90;;;;;;6080355;23;20422;-78
2023/07/01 10:58:25;;;;;;;0.90;0.90;;;20.20;99.90;;;;;;6037471;23;20014;-77
2023/07/01 11:00:52;;;;;;;0.88;0.73;;;20.00;99.90;;;;;;6054008;23;20038;-77
2023/07/01 11:03:33;;;;;;;0.82;0.80;;;20.10;99.90;;;;;;6078093;23;20011;-78
2023/07/01 11:06:01;;;;;;;0.70;0.70;;;20.10;99.90;;;;;;6108680;23;20514;-78
2023/07/01 11:08:27;;;;;;;1.00;0.82;;;20.10;99.90;;;;;;6083190;23;20017;-77
2023/07/01 11:10:53;;;;;;;0.60;0.60;;;20.00;99.90;;;;;;6053341;23;20010;-77
2023/07/01 11:13:18;;;;;;;0.82;0.40;;;20.00;99.90;;;;;;6083156;23;20041;-78
2023/07/01 11:16:10;;;;;;;0.52;0.43;;;20.00;99.90;;;;;;6081208;23;20348;-78
2023/07/01 11:18:42;;;;;;;0.50;0.50;;;20.00;99.90;;;;;;6081369;23;20339;-78
2023/07/01 11:21:13;;;;;;;0.82;0.50;;;20.00;99.90;;;;;;6034182;23;20037;-78
2023/07/01 11:23:42;;;;;;;0.52;0.52;;;19.90;99.90;;;;;;6053476;23;20061;-78
2023/07/01 11:26:08;;;;;;;0.40;0.40;;;20.00;99.90;;;;;;6058122;23;20036;-78
2023/07/01 11:28:34;;;;;;;0.60;0.60;;;19.90;99.90;;;;;;6058881;23;20088;-78
2023/07/01 11:31:19;;;;;;;1.42;0.38;;;19.70;99.90;;;;;;6030092;23;20064;-78
2023/07/01 11:33:45;;;;;;;0.65;0.50;;;19.60;99.90;;;;;;6061356;23;20017;-78
2023/07/01 11:36:16;;;;;;;0.82;0.50;;;19.50;99.90;;;;;;6054061;23;20022;-79
2023/07/01 11:38:48;;;;;;;0.40;0.40;;;19.50;99.90;;;;;;6060187;23;20085;-78
2023/07/01 11:41:21;;;;;;;0.57;0.40;;;19.50;99.90;;;;;;6029653;23;20345;-78
2023/07/01 11:43:46;;;;;;;0.40;0.40;;;19.40;99.90;;;;;;6050281;23;20180;-78
2023/07/01 11:46:12;;;;;;;0.43;0.30;;;19.40;99.90;;;;;;6052340;23;20058;-78
2023/07/01 11:48:39;;;;;;;0.60;0.60;;;19.30;99.90;;;;;;6060324;23;20754;-78
2023/07/01 11:51:04;;;;;;;0.93;0.50;;;19.20;99.90;;;;;;6048099;23;20018;-78
2023/07/01 11:53:30;;;;;;;0.43;0.43;;;19.20;99.90;;;;;;6052879;23;20642;-79
2023/07/01 11:55:56;;;;;;;1.02;0.60;;;19.20;99.90;;;;;;6077192;23;20093;-78
2023/07/01 11:58:29;;;;;;;0.50;0.50;;;19.10;99.90;;;;;;6047893;23;20081;-78
2023/07/01 12:00:55;;;;;;;0.50;0.50;;;19.10;99.90;;;;;;6075729;23;20465;-78
2023/07/01 12:03:20;;;;;;;0.50;0.50;;;19.10;99.90;;;;;;6052655;23;20110;-78
2023/07/01 12:05:46;;;;;;;0.80;0.80;;;19.10;99.90;;;;;;6025821;23;20073;-78
2023/07/01 12:08:12;;;;;;;0.60;0.60;;;19.20;99.90;;;;;;6054389;23;20472;-78
2023/07/01 12:10:39;;;;;;;1.20;0.50;;;19.20;99.90;;;;;;6053148;23;20021;-78
2023/07/01 12:13:06;;;;;;;0.60;0.50;;;19.30;99.90;;;;;;6072288;23;20025;-78
2023/07/01 12:15:33;;;;;;;1.27;1.17;;;19.40;99.90;;;;;;6078446;23;20033;-78
2023/07/01 12:18:22;;;;;;;0.60;0.60;;;19.40;99.90;;;;;;6074896;23;20015;-78
2023/07/01 12:20:48;;;;;;;3.25;0.75;;;19.40;99.90;;;;;;6081669;23;20411;-78
2023/07/01 12:23:13;;;;;;;1.02;0.80;;;19.50;99.90;;;;;;6057399;23;20006;-78
2023/07/01 12:25:39;;;;;;;0.98;0.80;;;19.50;99.90;;;;;;6034377;23;20041;-78
2023/07/01 12:28:05;;;;;;;0.73;0.73;;;19.60;99.90;;;;;;6055769;23;20022;-78
2023/07/01 12:30:30;;;;;;;1.70;1.60;;;19.50;99.90;;;;;;6057093;23;20020;-78
2023/07/01 12:32:56;;;;;;;1.73;1.00;;;19.60;99.90;;;;;;6057996;23;20753;-78
2023/07/01 12:35:22;;;;;;;0.75;0.75;;;19.50;99.90;;;;;;6052652;23;20018;-78
2023/07/01 12:37:48;;;;;;;2.05;1.25;;;19.50;99.90;;;;;;6057488;23;20052;-78
2023/07/01 12:40:13;;;;;;;1.33;1.00;;;19.50;99.90;;;;;;6058159;23;20014;-78
2023/07/01 12:42:39;;;;;;;0.90;0.90;;;19.60;99.90;;;;;;6028765;23;20009;-78
2023/07/01 12:45:06;;;;;;;2.53;0.77;;;19.60;99.90;;;;;;6081321;23;20076;-78
2023/07/01 12:47:31;;;;;;;0.77;0.77;;;19.60;99.90;;;;;;6055428;23;20093;-78